Gold Bridge, Canada
Current Conditions -  °F | °C
As of 7:01 PM on Saturday 25 Oct 2014 (Local Time) from CYIN Reporting Station
Light Rain Light Rain  
Wind Chill: 36°   Ceiling: 13000
Heat Index: 41°   Visibility: 9mi
Dew Point: 39°   Wind: 7mph
Humidity: 93%   Direction: 150°SSE
Pressure: 29.32"   Gusts: NA
Location:  50.85°N, 122.85°W
Report Text: CYIN 260201Z AUTO 15006KT 9SM -RA OVC130 05/04 A2932 RMK SLP949 DENSITY ALT 4000FT
Loading
Personal Weather Stations






























Interactive Weather Map
Tropical Storm Tracking
New forecast layout! Learn more

10-Day Weather Forecast

Advertisements
Track Severe Weather on mobile